createdAt,value
2022-08-28T00:00:57.530Z,11.10
2022-08-28T00:03:44.287Z,10.90
2022-08-28T00:06:31.199Z,10.00
2022-08-28T00:09:18.962Z,8.80
2022-08-28T00:12:06.551Z,9.20
2022-08-28T00:14:53.612Z,10.35
2022-08-28T00:17:40.635Z,9.30
2022-08-28T00:20:27.975Z,8.43
2022-08-28T00:23:15.332Z,8.48
2022-08-28T00:26:02.252Z,9.55
2022-08-28T00:28:48.997Z,10.20
2022-08-28T00:31:39.598Z,9.65
2022-08-28T00:34:29.669Z,9.60
2022-08-28T00:37:20.637Z,8.95
2022-08-28T00:40:13.150Z,8.25
2022-08-28T00:43:03.857Z,8.70
2022-08-28T00:45:50.717Z,7.80
2022-08-28T00:48:37.986Z,6.88
2022-08-28T00:51:43.875Z,6.93
2022-08-28T00:54:56.006Z,7.20
2022-08-28T00:57:50.462Z,7.47
2022-08-28T01:00:40.339Z,8.07
2022-08-28T01:03:27.619Z,8.38
2022-08-28T01:06:16.543Z,8.77
2022-08-28T01:09:04.701Z,9.27
2022-08-28T01:11:54.669Z,9.45
2022-08-28T01:14:45.683Z,8.07
2022-08-28T01:17:34.828Z,8.32
2022-08-28T01:20:25.424Z,8.57
2022-08-28T01:23:37.086Z,7.20
2022-08-28T01:26:25.772Z,6.68
2022-08-28T01:29:13.287Z,6.70
2022-08-28T01:32:00.179Z,6.85
2022-08-28T01:34:46.947Z,6.00
2022-08-28T01:37:33.688Z,6.40
2022-08-28T01:40:36.230Z,6.55
2022-08-28T01:43:26.274Z,6.80
2022-08-28T01:46:13.224Z,7.88
2022-08-28T01:49:00.304Z,7.97
2022-08-28T01:51:48.027Z,8.30
2022-08-28T01:57:23.871Z,8.85
2022-08-28T02:03:00.897Z,9.05
2022-08-28T02:05:47.827Z,9.68
2022-08-28T02:08:34.788Z,10.40
2022-08-28T02:11:25.963Z,10.57
2022-08-28T02:14:12.726Z,11.18
2022-08-28T02:16:59.669Z,11.15
2022-08-28T02:19:46.516Z,11.83
2022-08-28T02:22:33.582Z,11.82
2022-08-28T02:25:20.383Z,11.40
2022-08-28T02:28:07.251Z,11.50
2022-08-28T02:30:55.074Z,10.00
2022-08-28T02:33:44.700Z,9.52
2022-08-28T02:36:32.106Z,9.02
2022-08-28T02:39:18.874Z,9.18
2022-08-28T02:42:06.382Z,8.90
2022-08-28T02:44:53.319Z,8.68
2022-08-28T02:47:42.515Z,9.10
2022-08-28T02:50:29.923Z,9.68
2022-08-28T02:53:18.004Z,11.18
2022-08-28T02:56:06.057Z,10.65
2022-08-28T02:58:52.843Z,10.90
2022-08-28T03:01:42.055Z,10.95
2022-08-28T03:04:28.868Z,9.90
2022-08-28T03:07:16.889Z,10.20
2022-08-28T03:10:05.210Z,10.57
2022-08-28T03:12:52.692Z,10.57
2022-08-28T03:15:43.563Z,11.93
2022-08-28T03:18:30.375Z,13.48
2022-08-28T03:21:17.370Z,12.88
2022-08-28T03:24:04.392Z,11.57
2022-08-28T03:26:51.159Z,13.43
2022-08-28T03:29:37.929Z,12.75
2022-08-28T03:32:26.772Z,12.88
2022-08-28T03:35:16.977Z,12.65
2022-08-28T03:38:04.930Z,12.15
2022-08-28T03:40:52.161Z,11.68
2022-08-28T03:43:39.156Z,11.85
2022-08-28T03:46:28.306Z,11.82
2022-08-28T03:49:15.194Z,12.15
2022-08-28T03:52:03.951Z,10.93
2022-08-28T03:54:51.098Z,12.50
2022-08-28T03:57:38.593Z,11.82
2022-08-28T04:00:25.636Z,10.85
2022-08-28T04:03:12.630Z,10.33
2022-08-28T04:05:59.499Z,9.90
2022-08-28T04:08:46.406Z,10.50
2022-08-28T04:11:38.370Z,9.73
2022-08-28T04:14:25.095Z,10.57
2022-08-28T04:17:11.951Z,9.88
2022-08-28T04:19:58.839Z,9.40
2022-08-28T04:22:45.630Z,8.98
2022-08-28T04:25:32.414Z,9.20
2022-08-28T04:28:19.195Z,8.63
2022-08-28T04:31:07.661Z,8.65
2022-08-28T04:33:55.843Z,9.23
2022-08-28T04:36:42.580Z,9.10
2022-08-28T04:39:29.327Z,9.98
2022-08-28T04:42:16.115Z,8.98
2022-08-28T04:45:03.361Z,9.10
2022-08-28T04:47:50.148Z,8.65
2022-08-28T04:50:43.973Z,8.80
2022-08-28T04:53:30.742Z,8.50
2022-08-28T04:56:18.226Z,8.25
2022-08-28T04:59:05.063Z,8.02
2022-08-28T05:01:52.004Z,7.87
2022-08-28T05:04:38.898Z,7.50
2022-08-28T05:07:25.680Z,7.53
2022-08-28T05:10:12.458Z,7.78
2022-08-28T05:12:59.258Z,7.03
2022-08-28T05:15:48.854Z,8.02
2022-08-28T05:18:35.838Z,8.15
2022-08-28T05:21:23.292Z,7.57
2022-08-28T05:24:10.782Z,7.20
2022-08-28T05:26:57.684Z,6.90
2022-08-28T05:29:44.480Z,7.40
2022-08-28T05:32:31.255Z,7.03
2022-08-28T05:35:18.096Z,8.18
2022-08-28T05:38:06.636Z,7.25
2022-08-28T05:40:53.443Z,8.27
2022-08-28T05:43:40.191Z,9.20
2022-08-28T05:46:28.289Z,10.25
2022-08-28T05:49:17.706Z,9.75
2022-08-28T05:52:04.519Z,10.57
2022-08-28T05:54:51.721Z,11.18
2022-08-28T05:57:39.304Z,11.55
2022-08-28T06:00:26.029Z,12.10
2022-08-28T06:03:12.778Z,11.75
2022-08-28T06:06:00.387Z,11.07
2022-08-28T06:08:58.150Z,10.95
2022-08-28T06:11:46.489Z,9.65
2022-08-28T06:14:33.531Z,9.23
2022-08-28T06:20:11.144Z,8.70
2022-08-28T06:22:58.243Z,8.45
2022-08-28T06:25:49.051Z,8.35
2022-08-28T06:28:36.084Z,7.70
2022-08-28T06:31:25.850Z,8.13
2022-08-28T06:34:13.483Z,8.18
2022-08-28T06:37:00.607Z,8.27
2022-08-28T06:39:47.404Z,7.88
2022-08-28T06:42:34.194Z,8.00
2022-08-28T06:45:21.006Z,8.25
2022-08-28T06:48:09.619Z,8.00
2022-08-28T06:50:57.780Z,7.78
2022-08-28T06:53:45.839Z,8.80
2022-08-28T06:56:33.453Z,7.60
2022-08-28T06:59:20.710Z,7.45
2022-08-28T07:02:09.197Z,8.85
2022-08-28T07:04:56.298Z,7.70
2022-08-28T07:07:43.274Z,8.10
2022-08-28T07:10:31.222Z,7.57
2022-08-28T07:13:17.962Z,7.43
2022-08-28T07:16:04.881Z,7.45
2022-08-28T07:18:51.899Z,7.87
2022-08-28T07:21:43.010Z,7.63
2022-08-28T07:24:29.840Z,6.85
2022-08-28T07:27:19.050Z,7.22
2022-08-28T07:30:07.399Z,7.05
2022-08-28T07:32:54.173Z,6.38
2022-08-28T07:35:44.378Z,7.13
2022-08-28T07:38:31.256Z,7.30
2022-08-28T07:41:20.838Z,7.27
2022-08-28T07:44:28.114Z,7.18
2022-08-28T07:47:14.893Z,7.05
2022-08-28T07:50:01.825Z,6.68
2022-08-28T07:52:48.554Z,6.47
2022-08-28T07:55:35.623Z,7.10
2022-08-28T07:58:25.407Z,6.63
2022-08-28T08:01:12.420Z,7.40
2022-08-28T08:04:01.983Z,7.75
2022-08-28T08:06:52.320Z,7.65
2022-08-28T08:09:43.839Z,6.90
2022-08-28T08:12:31.922Z,7.05
2022-08-28T08:15:19.271Z,7.25
2022-08-28T08:18:06.123Z,8.13
2022-08-28T08:20:52.940Z,7.63
2022-08-28T08:23:41.553Z,8.07
2022-08-28T08:26:29.553Z,8.20
2022-08-28T08:29:17.198Z,7.57
2022-08-28T08:32:07.826Z,8.32
2022-08-28T08:34:58.486Z,9.02
2022-08-28T08:37:45.254Z,8.73
2022-08-28T08:40:32.181Z,7.82
2022-08-28T08:43:21.283Z,8.52
2022-08-28T08:46:09.656Z,7.65
2022-08-28T08:48:59.585Z,8.05
2022-08-28T08:52:05.181Z,7.45
2022-08-28T08:55:10.513Z,7.55
2022-08-28T08:58:11.314Z,7.85
2022-08-28T09:01:27.737Z,8.20
2022-08-28T09:04:40.509Z,7.85
2022-08-28T09:07:53.013Z,8.32
2022-08-28T09:10:48.259Z,12.32
2022-08-28T09:14:00.628Z,14.40
2022-08-28T09:16:48.099Z,13.48
2022-08-28T09:19:35.102Z,12.23
2022-08-28T09:22:22.777Z,11.82
2022-08-28T09:25:11.106Z,9.90
2022-08-28T09:28:09.580Z,8.85
2022-08-28T09:31:01.289Z,9.70
2022-08-28T09:33:51.869Z,9.63
2022-08-28T09:36:39.035Z,8.80
2022-08-28T09:39:33.802Z,8.80
2022-08-28T09:42:42.176Z,7.78
2022-08-28T09:45:29.555Z,7.78
2022-08-28T09:48:22.167Z,7.22
2022-08-28T09:51:34.877Z,7.97
2022-08-28T09:54:26.845Z,8.32
2022-08-28T09:57:13.691Z,7.63
2022-08-28T10:00:00.406Z,6.73
2022-08-28T10:02:52.348Z,6.67
2022-08-28T10:06:02.868Z,6.18
2022-08-28T10:09:25.573Z,6.00
2022-08-28T10:12:12.483Z,5.30
2022-08-28T10:15:23.836Z,4.60
2022-08-28T10:18:22.105Z,4.82
2022-08-28T10:21:09.598Z,4.75
2022-08-28T10:24:26.502Z,4.47
2022-08-28T10:27:25.545Z,4.35
2022-08-28T10:30:22.960Z,4.03
2022-08-28T10:33:41.554Z,3.90
2022-08-28T10:36:34.871Z,3.70
2022-08-28T10:39:50.630Z,3.83
2022-08-28T10:42:46.682Z,4.10
2022-08-28T10:45:34.953Z,4.22
2022-08-28T10:48:34.334Z,3.75
2022-08-28T10:51:35.305Z,4.20
2022-08-28T10:54:45.938Z,4.10
2022-08-28T10:57:53.271Z,3.92
2022-08-28T11:00:43.135Z,4.25
2022-08-28T11:03:41.770Z,4.57
2022-08-28T11:06:40.904Z,4.70
2022-08-28T11:09:39.574Z,4.45
2022-08-28T11:12:37.967Z,4.40
2022-08-28T11:15:34.232Z,4.88
2022-08-28T11:18:47.226Z,4.55
2022-08-28T11:21:43.092Z,4.55
2022-08-28T11:24:38.399Z,4.20
2022-08-28T11:27:33.301Z,4.50
2022-08-28T11:30:33.640Z,3.50
2022-08-28T11:33:38.407Z,3.65
2022-08-28T11:36:29.707Z,2.97
2022-08-28T11:39:16.430Z,3.03
2022-08-28T11:42:13.680Z,2.70
2022-08-28T11:45:01.266Z,2.55
2022-08-28T11:47:52.227Z,3.35
2022-08-28T11:50:57.735Z,2.92
2022-08-28T11:54:09.256Z,3.03
2022-08-28T11:57:15.915Z,3.67
2022-08-28T12:00:11.357Z,3.50
2022-08-28T12:03:12.556Z,2.80
2022-08-28T12:06:00.626Z,2.85
2022-08-28T12:08:53.356Z,2.30
2022-08-28T12:11:40.054Z,2.33
2022-08-28T12:14:27.133Z,2.08
2022-08-28T12:17:31.241Z,2.33
2022-08-28T12:20:24.033Z,2.17
2022-08-28T12:23:29.447Z,2.10
2022-08-28T12:26:36.060Z,2.20
2022-08-28T12:29:32.974Z,1.70
2022-08-28T12:32:47.717Z,1.80
2022-08-28T12:35:34.866Z,2.10
2022-08-28T12:38:22.430Z,2.50
2022-08-28T12:41:17.070Z,2.47
2022-08-28T12:44:06.464Z,2.63
2022-08-28T12:46:54.188Z,2.45
2022-08-28T12:49:40.995Z,2.60
2022-08-28T12:52:27.772Z,2.47
2022-08-28T12:55:14.771Z,2.33
2022-08-28T13:00:55.977Z,2.40
2022-08-28T13:03:56.807Z,2.78
2022-08-28T13:06:43.785Z,3.00
2022-08-28T13:09:30.664Z,2.90
2022-08-28T13:12:55.771Z,2.70
2022-08-28T13:16:06.826Z,3.35
2022-08-28T13:19:20.646Z,3.35
2022-08-28T13:22:34.909Z,3.10
2022-08-28T13:25:25.147Z,3.20
2022-08-28T13:28:14.395Z,3.20
2022-08-28T13:31:01.258Z,3.30
2022-08-28T13:34:07.239Z,2.88
2022-08-28T13:36:58.088Z,2.80
2022-08-28T13:39:44.855Z,2.72
2022-08-28T13:42:32.821Z,2.60
2022-08-28T13:45:19.620Z,3.08
2022-08-28T13:48:06.680Z,2.65
2022-08-28T13:50:58.450Z,2.72
2022-08-28T13:53:45.642Z,2.80
2022-08-28T13:56:32.426Z,2.78
2022-08-28T13:59:20.685Z,2.90
2022-08-28T14:02:30.169Z,3.30
2022-08-28T14:05:18.171Z,3.17
2022-08-28T14:08:04.987Z,3.58
2022-08-28T14:10:52.043Z,3.80
2022-08-28T14:13:38.873Z,3.90
2022-08-28T14:16:25.779Z,3.60
2022-08-28T14:19:13.378Z,3.92
2022-08-28T14:22:00.357Z,3.88
2022-08-28T14:24:47.088Z,4.13
2022-08-28T14:27:33.851Z,3.72
2022-08-28T14:30:20.666Z,4.03
2022-08-28T14:33:07.508Z,3.95
2022-08-28T14:35:54.230Z,3.90
2022-08-28T14:38:41.039Z,3.90
2022-08-28T14:41:28.339Z,4.18
2022-08-28T14:44:15.946Z,3.72
2022-08-28T14:47:03.250Z,3.60
2022-08-28T14:49:50.076Z,3.72
2022-08-28T14:52:37.428Z,3.92
2022-08-28T14:55:26.291Z,3.47
2022-08-28T14:58:14.385Z,3.70
2022-08-28T15:01:02.126Z,4.00
2022-08-28T15:03:48.999Z,3.47
2022-08-28T15:06:36.691Z,3.80
2022-08-28T15:09:23.496Z,3.38
2022-08-28T15:12:11.366Z,3.50
2022-08-28T15:14:58.066Z,3.30
2022-08-28T15:17:44.838Z,3.33
2022-08-28T15:20:31.642Z,3.40
2022-08-28T15:23:18.420Z,3.58
2022-08-28T15:26:05.230Z,3.35
2022-08-28T15:28:55.711Z,3.08
2022-08-28T15:31:45.665Z,3.20
2022-08-28T15:34:33.144Z,3.15
2022-08-28T15:37:19.917Z,3.50
2022-08-28T15:40:27.068Z,3.20
2022-08-28T15:43:14.078Z,3.08
2022-08-28T15:46:01.104Z,3.40
2022-08-28T15:48:49.641Z,3.60
2022-08-28T15:51:36.493Z,3.33
2022-08-28T15:54:25.438Z,3.50
2022-08-28T15:57:12.324Z,3.17
2022-08-28T15:59:59.871Z,3.22
2022-08-28T16:05:35.519Z,3.20
2022-08-28T16:08:28.631Z,3.13
2022-08-28T16:11:17.974Z,3.28
2022-08-28T16:14:04.879Z,3.50
2022-08-28T16:16:52.187Z,3.60
2022-08-28T16:19:40.791Z,3.50
2022-08-28T16:22:27.551Z,3.38
2022-08-28T16:25:14.317Z,3.50
2022-08-28T16:28:01.181Z,3.40
2022-08-28T16:30:48.041Z,3.17
2022-08-28T16:33:36.196Z,3.63
2022-08-28T16:36:25.183Z,3.40
2022-08-28T16:39:11.940Z,3.40
2022-08-28T16:41:58.855Z,3.37
2022-08-28T16:44:45.684Z,3.38
2022-08-28T16:47:33.547Z,3.45
2022-08-28T16:50:20.466Z,3.10
2022-08-28T16:53:07.470Z,2.90
2022-08-28T16:55:54.307Z,3.42
2022-08-28T16:58:42.859Z,3.47
2022-08-28T17:01:29.777Z,3.05
2022-08-28T17:04:16.669Z,3.20
2022-08-28T17:07:04.004Z,3.13
2022-08-28T17:09:50.750Z,3.47
2022-08-28T17:12:38.342Z,3.10
2022-08-28T17:18:11.954Z,3.05
2022-08-28T17:21:17.281Z,3.00
2022-08-28T17:24:04.171Z,3.10
2022-08-28T17:26:51.099Z,2.90
2022-08-28T17:29:38.842Z,2.95
2022-08-28T17:32:25.696Z,3.10
2022-08-28T17:35:12.906Z,2.72
2022-08-28T17:37:59.691Z,2.83
2022-08-28T17:40:46.563Z,3.23
2022-08-28T17:43:34.018Z,2.80
2022-08-28T17:46:20.771Z,2.95
2022-08-28T17:49:08.578Z,2.70
2022-08-28T17:51:55.334Z,3.10
2022-08-28T17:54:42.085Z,2.70
2022-08-28T17:57:30.583Z,2.73
2022-08-28T18:00:18.298Z,2.58
2022-08-28T18:03:05.092Z,2.80
2022-08-28T18:05:51.921Z,2.70
2022-08-28T18:08:39.342Z,2.72
2022-08-28T18:11:26.211Z,2.53
2022-08-28T18:14:13.119Z,2.53
2022-08-28T18:16:59.921Z,2.70
2022-08-28T18:19:46.662Z,2.80
2022-08-28T18:22:33.417Z,2.73
2022-08-28T18:25:38.987Z,2.40
2022-08-28T18:28:26.623Z,2.40
2022-08-28T18:34:00.296Z,2.78
2022-08-28T18:36:47.068Z,2.50
2022-08-28T18:39:35.921Z,3.07
2022-08-28T18:42:22.656Z,2.72
2022-08-28T18:45:10.459Z,2.60
2022-08-28T18:47:57.917Z,2.30
2022-08-28T18:50:47.306Z,2.53
2022-08-28T18:53:34.655Z,2.35
2022-08-28T18:56:21.466Z,2.58
2022-08-28T18:59:09.515Z,2.53
2022-08-28T19:01:56.571Z,2.70
2022-08-28T19:04:44.553Z,2.70
2022-08-28T19:07:31.298Z,2.80
2022-08-28T19:10:32.705Z,2.40
2022-08-28T19:13:21.148Z,2.80
2022-08-28T19:16:08.614Z,2.50
2022-08-28T19:18:55.671Z,2.70
2022-08-28T19:21:42.482Z,2.42
2022-08-28T19:24:31.202Z,2.47
2022-08-28T19:27:18.031Z,2.70
2022-08-28T19:30:07.155Z,2.50
2022-08-28T19:32:54.815Z,2.50
2022-08-28T19:38:30.863Z,2.90
2022-08-28T19:41:17.822Z,2.90
2022-08-28T19:44:05.958Z,2.90
2022-08-28T19:46:53.466Z,2.83
2022-08-28T19:49:40.741Z,2.83
2022-08-28T19:52:27.683Z,2.83
2022-08-28T19:55:24.269Z,3.53
2022-08-28T19:58:11.133Z,3.00
2022-08-28T20:00:57.975Z,3.50
2022-08-28T20:03:44.708Z,2.90
2022-08-28T20:06:33.207Z,3.10
2022-08-28T20:09:20.078Z,3.20
2022-08-28T20:12:06.883Z,3.33
2022-08-28T20:14:53.922Z,3.30
2022-08-28T20:17:43.737Z,3.20
2022-08-28T20:20:30.909Z,3.33
2022-08-28T20:23:18.366Z,2.90
2022-08-28T20:26:05.559Z,3.00
2022-08-28T20:28:53.876Z,2.83
2022-08-28T20:31:43.603Z,3.00
2022-08-28T20:34:30.356Z,3.38
2022-08-28T20:37:17.178Z,3.40
2022-08-28T20:40:09.956Z,3.03
2022-08-28T20:42:58.742Z,3.03
2022-08-28T20:45:45.490Z,3.47
2022-08-28T20:48:33.762Z,3.47
2022-08-28T20:51:40.478Z,3.40
2022-08-28T20:54:37.282Z,3.40
2022-08-28T20:57:24.683Z,3.72
2022-08-28T21:00:12.735Z,3.83
2022-08-28T21:02:59.516Z,3.45
2022-08-28T21:05:48.034Z,3.80
2022-08-28T21:08:35.862Z,3.40
2022-08-28T21:11:24.122Z,3.40
2022-08-28T21:14:10.968Z,3.78
2022-08-28T21:16:57.801Z,3.80
2022-08-28T21:19:45.154Z,3.90
2022-08-28T21:22:36.013Z,3.53
2022-08-28T21:25:26.567Z,3.70
2022-08-28T21:28:13.324Z,4.05
2022-08-28T21:31:00.242Z,4.40
2022-08-28T21:33:47.539Z,4.00
2022-08-28T21:36:34.303Z,5.00
2022-08-28T21:39:21.150Z,5.00
2022-08-28T21:42:08.046Z,5.30
2022-08-28T21:44:54.954Z,5.20
2022-08-28T21:47:42.308Z,5.50
2022-08-28T21:50:29.180Z,5.85
2022-08-28T21:53:16.501Z,6.00
2022-08-28T21:56:07.615Z,5.50
2022-08-28T22:01:42.247Z,5.57
2022-08-28T22:04:29.284Z,5.40
2022-08-28T22:07:17.398Z,5.40
2022-08-28T22:10:05.146Z,5.03
2022-08-28T22:15:40.718Z,4.75
2022-08-28T22:18:32.080Z,4.53
2022-08-28T22:21:43.599Z,4.70
2022-08-28T22:24:30.400Z,4.88
2022-08-28T22:27:17.290Z,4.90
2022-08-28T22:30:04.785Z,4.50
2022-08-28T22:32:51.534Z,4.78
2022-08-28T22:35:38.559Z,5.07
2022-08-28T22:38:26.220Z,5.22
2022-08-28T22:41:13.310Z,5.53
2022-08-28T22:44:00.689Z,5.97
2022-08-28T22:46:47.505Z,5.70
2022-08-28T22:49:35.071Z,5.40
2022-08-28T22:52:26.703Z,5.57
2022-08-28T22:55:15.207Z,5.85
2022-08-28T22:58:02.703Z,5.63
2022-08-28T23:00:49.842Z,5.15
2022-08-28T23:03:36.982Z,5.60
2022-08-28T23:06:23.816Z,5.90
2022-08-28T23:09:10.611Z,5.78
2022-08-28T23:12:00.147Z,5.82
2022-08-28T23:14:48.839Z,6.30
2022-08-28T23:17:36.380Z,6.13
2022-08-28T23:20:23.775Z,5.95
2022-08-28T23:23:13.854Z,6.57
2022-08-28T23:26:01.162Z,6.60
2022-08-28T23:28:48.342Z,6.30
2022-08-28T23:31:35.942Z,6.93
2022-08-28T23:34:22.726Z,6.35
2022-08-28T23:37:09.808Z,5.72
2022-08-28T23:39:56.590Z,6.30
2022-08-28T23:42:45.215Z,5.80
2022-08-28T23:45:32.085Z,5.97
2022-08-28T23:48:18.971Z,6.03
2022-08-28T23:51:09.549Z,6.57
2022-08-28T23:53:56.577Z,6.53
2022-08-28T23:56:43.773Z,6.30
2022-08-28T23:59:31.127Z,6.47
